Bow Island, Canada
Current Conditions -  °F | °C
As of 3:00 PM on Monday 20 Oct 2014 (Local Time) from CYXH Reporting Station
Clear Clear  
Wind Chill: 81°   Ceiling: Unl
Heat Index: 81°   Visibility: 30mi
Dew Point: 32°   Wind: 14mph
Humidity: 17%   Direction: 200°SSW
Pressure: 29.65"   Gusts: 24mph
Location:  49.87°N, 111.36°W
Report Text: CYXH 202100Z 20012G21KT 30SM SKC 27/00 A2965 RMK SLP038 DENSITY ALT 4600FT
Loading
Personal Weather Stations






























Interactive Weather Map
Tropical Storm Tracking
New forecast layout! Learn more

10-Day Weather Forecast

Advertisements
Track Severe Weather on mobile